Time;durP1;ratioP1;P1;durP2;ratioP2;P2;SDS_P1;SDS_P2;PMS_P1;PMS_P2;Temp;Humidity;BMP_temperature;BMP_pressure;BME280_temperature;BME280_humidity;BME280_pressure;Samples;Min_cycle;Max_cycle;Signal;HPM_P1;HPM_P2
2022/06/17 00:02:04;;;;;;;6.03;3.50;;;;;15.20;101885.00;;;;5042237;28;20222;-70
2022/06/17 00:04:50;;;;;;;4.37;3.33;;;;;15.10;101898.00;;;;5043091;28;20287;-70
2022/06/17 00:07:39;;;;;;;3.60;3.30;;;;;15.00;101888.00;;;;5050831;28;20206;-71
2022/06/17 00:10:27;;;;;;;3.43;3.13;;;;;15.00;101886.00;;;;5045049;28;20228;-70
2022/06/17 00:13:18;;;;;;;4.53;3.20;;;;;14.90;101886.00;;;;5045126;28;20739;-71
2022/06/17 00:16:06;;;;;;;7.10;3.20;;;;;14.90;101877.00;;;;5044332;28;20629;-71
2022/06/17 00:18:53;;;;;;;3.73;3.10;;;;;14.80;101876.00;;;;5046418;28;20229;-71
2022/06/17 00:21:42;;;;;;;4.00;3.10;;;;;14.80;101871.00;;;;5039794;28;20224;-70
2022/06/17 00:24:34;;;;;;;5.43;3.27;;;;;14.80;101863.00;;;;5043979;28;20294;-69
2022/06/17 00:27:20;;;;;;;5.07;3.30;;;;;14.80;101852.00;;;;5045029;28;20692;-70
2022/06/17 00:30:15;;;;;;;5.63;3.70;;;;;14.70;101856.00;;;;5050180;28;20232;-70
2022/06/17 00:33:03;;;;;;;5.70;3.50;;;;;14.70;101850.00;;;;5046344;28;20238;-71
2022/06/17 00:35:52;;;;;;;5.00;3.33;;;;;14.60;101844.00;;;;5044757;28;20219;-70
2022/06/17 00:38:39;;;;;;;4.20;3.63;;;;;14.60;101831.00;;;;5040221;28;20214;-70
2022/06/17 00:41:29;;;;;;;4.77;3.60;;;;;14.60;101829.00;;;;5049764;28;20684;-69
2022/06/17 00:44:26;;;;;;;5.43;3.90;;;;;14.50;101832.00;;;;5046213;28;20288;-70
2022/06/17 00:47:24;;;;;;;4.17;3.57;;;;;14.50;101843.00;;;;5038932;28;20264;-70
2022/06/17 00:50:16;;;;;;;7.20;3.43;;;;;14.50;101859.00;;;;5039155;28;20205;-70
2022/06/17 00:53:14;;;;;;;4.97;3.67;;;;;14.50;101848.00;;;;5036182;28;20230;-70
2022/06/17 00:56:04;;;;;;;4.90;3.40;;;;;14.50;101851.00;;;;5039673;28;20237;-70
2022/06/17 00:59:00;;;;;;;5.97;3.77;;;;;14.40;101848.00;;;;5036660;28;20630;-70
2022/06/17 01:01:50;;;;;;;4.03;3.27;;;;;14.40;101844.00;;;;5047305;28;20750;-69
2022/06/17 01:04:44;;;;;;;8.20;3.63;;;;;14.30;101862.00;;;;5043371;28;20692;-71
2022/06/17 01:07:36;;;;;;;4.23;3.30;;;;;14.30;101863.00;;;;5043424;28;20256;-70
2022/06/17 01:10:22;;;;;;;4.87;3.40;;;;;14.30;101855.00;;;;5045349;28;20300;-70
2022/06/17 01:13:11;;;;;;;3.87;3.27;;;;;14.20;101861.00;;;;5044537;28;20233;-69
2022/06/17 01:15:57;;;;;;;4.27;3.70;;;;;14.30;101874.00;;;;5045780;28;20258;-70
2022/06/17 01:18:45;;;;;;;4.43;3.50;;;;;14.30;101861.00;;;;5046794;28;20316;-70
2022/06/17 01:21:39;;;;;;;3.70;3.20;;;;;14.30;101859.00;;;;5042977;28;20352;-70
2022/06/17 01:24:28;;;;;;;4.13;3.13;;;;;14.20;101862.00;;;;5046408;28;20312;-70
2022/06/17 01:27:17;;;;;;;4.43;3.63;;;;;14.30;101863.00;;;;5046398;28;20295;-71
2022/06/17 01:30:06;;;;;;;5.23;3.70;;;;;14.30;101861.00;;;;5044434;28;20308;-71
2022/06/17 01:32:57;;;;;;;4.87;3.67;;;;;14.30;101870.00;;;;5041667;28;20318;-70
2022/06/17 01:35:48;;;;;;;5.23;3.83;;;;;14.10;101861.00;;;;5042824;28;20228;-70
2022/06/17 01:38:37;;;;;;;3.90;3.50;;;;;14.10;101850.00;;;;5042744;28;20214;-70
2022/06/17 01:41:28;;;;;;;4.23;3.60;;;;;14.10;101856.00;;;;5044229;28;20246;-70
2022/06/17 01:44:18;;;;;;;3.90;3.50;;;;;14.00;101870.00;;;;5043034;28;20357;-70
2022/06/17 01:47:11;;;;;;;4.77;3.87;;;;;14.00;101870.00;;;;5043793;28;20323;-69
2022/06/17 01:50:02;;;;;;;4.20;3.37;;;;;13.90;101861.00;;;;5045180;28;20253;-70
2022/06/17 01:52:56;;;;;;;4.50;3.90;;;;;14.00;101864.00;;;;5038887;28;20781;-71
2022/06/17 01:55:44;;;;;;;4.17;3.53;;;;;13.90;101856.00;;;;5045686;28;20212;-70
2022/06/17 01:58:35;;;;;;;3.93;3.40;;;;;13.90;101858.00;;;;5045426;28;20213;-71
2022/06/17 02:01:23;;;;;;;4.07;3.67;;;;;13.90;101865.00;;;;5042491;28;20213;-70
2022/06/17 02:04:13;;;;;;;5.40;4.00;;;;;13.90;101877.00;;;;5040537;28;20780;-70
2022/06/17 02:07:07;;;;;;;4.90;3.70;;;;;13.90;101883.00;;;;5046011;28;20223;-70
2022/06/17 02:09:53;;;;;;;4.33;3.80;;;;;13.90;101889.00;;;;5043383;28;20251;-71
2022/06/17 02:12:40;;;;;;;4.57;3.67;;;;;13.90;101894.00;;;;5044523;28;20721;-71
2022/06/17 02:15:28;;;;;;;5.77;3.73;;;;;13.80;101892.00;;;;5047675;28;20285;-71
2022/06/17 02:18:18;;;;;;;6.97;3.50;;;;;13.80;101889.00;;;;5045897;28;20568;-71
2022/06/17 02:21:11;;;;;;;6.13;3.53;;;;;13.70;101875.00;;;;5045011;28;20575;-70
2022/06/17 02:23:59;;;;;;;5.10;4.10;;;;;13.70;101881.00;;;;5033310;28;20717;-71
2022/06/17 02:26:45;;;;;;;5.70;3.50;;;;;13.60;101875.00;;;;5038566;28;20247;-71
2022/06/17 02:29:33;;;;;;;4.60;3.77;;;;;13.60;101878.00;;;;5037539;28;20736;-71
2022/06/17 02:32:21;;;;;;;4.67;3.73;;;;;13.60;101873.00;;;;5042011;28;20352;-71
2022/06/17 02:35:18;;;;;;;4.37;3.73;;;;;13.60;101871.00;;;;5042320;28;20218;-70
2022/06/17 02:38:05;;;;;;;4.77;4.20;;;;;13.50;101875.00;;;;5044587;28;20217;-70
2022/06/17 02:40:54;;;;;;;4.23;3.83;;;;;13.40;101878.00;;;;5040351;28;20220;-71
2022/06/17 02:43:44;;;;;;;4.43;3.70;;;;;13.40;101885.00;;;;5044310;28;20237;-69
2022/06/17 02:46:34;;;;;;;5.27;3.60;;;;;13.40;101882.00;;;;5045573;28;20316;-69
2022/06/17 02:49:26;;;;;;;5.40;3.93;;;;;13.40;101885.00;;;;5043601;28;20302;-70
2022/06/17 02:52:19;;;;;;;4.60;3.53;;;;;13.40;101890.00;;;;5044962;28;20216;-70
2022/06/17 02:55:08;;;;;;;4.73;3.50;;;;;13.40;101878.00;;;;5044680;28;20223;-71
2022/06/17 02:58:02;;;;;;;6.90;3.63;;;;;13.30;101881.00;;;;5042283;28;20236;-71
2022/06/17 03:00:49;;;;;;;5.63;3.77;;;;;13.30;101873.00;;;;5046562;28;20578;-69
2022/06/17 03:03:36;;;;;;;5.17;3.57;;;;;13.30;101876.00;;;;5049534;28;20625;-69
2022/06/17 03:06:30;;;;;;;5.33;3.90;;;;;13.30;101870.00;;;;5036766;28;20224;-70
2022/06/17 03:09:21;;;;;;;5.63;4.07;;;;;13.30;101865.00;;;;5040187;28;20263;-70
2022/06/17 03:12:11;;;;;;;5.63;4.00;;;;;13.30;101873.00;;;;5041012;28;20213;-70
2022/06/17 03:15:03;;;;;;;4.30;3.73;;;;;13.30;101863.00;;;;5043673;28;20196;-70
2022/06/17 03:17:50;;;;;;;4.63;3.97;;;;;13.30;101873.00;;;;5046290;28;20225;-70
2022/06/17 03:20:37;;;;;;;6.10;3.80;;;;;13.30;101869.00;;;;5038974;28;20205;-70
2022/06/17 03:23:31;;;;;;;9.20;3.53;;;;;13.40;101856.00;;;;5036431;28;20412;-70
2022/06/17 03:26:20;;;;;;;5.83;4.20;;;;;13.40;101856.00;;;;5039781;28;20246;-70
2022/06/17 03:29:09;;;;;;;5.87;3.90;;;;;13.40;101850.00;;;;5043518;28;20320;-70
2022/06/17 03:32:00;;;;;;;6.23;3.90;;;;;13.50;101849.00;;;;5044164;28;20231;-70
2022/06/17 03:34:50;;;;;;;5.37;3.80;;;;;13.60;101849.00;;;;5047337;28;20225;-70
2022/06/17 03:37:52;;;;;;;7.60;4.00;;;;;13.70;101851.00;;;;5042424;28;20291;-70
2022/06/17 03:40:43;;;;;;;5.80;4.50;;;;;13.80;101870.00;;;;5039245;28;20216;-70
2022/06/17 03:43:34;;;;;;;5.30;4.20;;;;;13.90;101863.00;;;;5036975;28;20241;-70
2022/06/17 03:46:24;;;;;;;5.30;3.80;;;;;14.00;101852.00;;;;5039053;28;20205;-70
2022/06/17 03:49:17;;;;;;;6.23;3.93;;;;;14.00;101852.00;;;;5047528;28;20576;-70
2022/06/17 03:52:14;;;;;;;4.63;4.07;;;;;14.10;101857.00;;;;5052439;28;20290;-70
2022/06/17 03:55:01;;;;;;;5.87;4.17;;;;;14.10;101862.00;;;;5043939;28;20259;-70
2022/06/17 03:57:51;;;;;;;5.50;4.10;;;;;14.30;101882.00;;;;5045345;28;20241;-70
2022/06/17 04:00:41;;;;;;;5.60;4.50;;;;;14.40;101864.00;;;;5042921;28;20279;-70
2022/06/17 04:03:33;;;;;;;4.17;3.73;;;;;14.50;101882.00;;;;5045654;28;20240;-70
2022/06/17 04:06:24;;;;;;;4.37;3.90;;;;;14.70;101876.00;;;;5040082;28;20210;-70
2022/06/17 04:09:16;;;;;;;5.40;4.10;;;;;14.70;101890.00;;;;5036454;28;20348;-71
2022/06/17 04:12:06;;;;;;;5.83;3.90;;;;;14.90;101890.00;;;;5043052;28;20298;-70
2022/06/17 04:14:59;;;;;;;5.60;4.10;;;;;14.90;101901.00;;;;5042288;28;20252;-70
2022/06/17 04:17:48;;;;;;;5.37;4.07;;;;;14.90;101898.00;;;;5039437;28;20551;-70
2022/06/17 04:20:42;;;;;;;5.97;4.37;;;;;15.00;101907.00;;;;5043298;28;20409;-70
2022/06/17 04:23:32;;;;;;;5.20;3.83;;;;;15.00;101907.00;;;;5046324;28;20368;-69
2022/06/17 04:26:24;;;;;;;4.40;4.00;;;;;15.00;101909.00;;;;5043877;28;20689;-71
2022/06/17 04:29:15;;;;;;;4.97;4.37;;;;;15.00;101902.00;;;;5039528;28;20841;-70
2022/06/17 04:32:10;;;;;;;6.50;4.27;;;;;15.00;101904.00;;;;5046555;28;20212;-70
2022/06/17 04:34:57;;;;;;;5.10;4.40;;;;;15.00;101912.00;;;;5040828;28;20728;-70
2022/06/17 04:37:45;;;;;;;4.30;3.90;;;;;15.00;101908.00;;;;5044570;28;20221;-70
2022/06/17 04:40:37;;;;;;;4.90;4.07;;;;;14.90;101905.00;;;;5044459;28;20283;-70
2022/06/17 04:43:30;;;;;;;6.10;4.27;;;;;14.80;101900.00;;;;5043223;28;20318;-70
2022/06/17 04:46:21;;;;;;;5.57;4.50;;;;;14.80;101902.00;;;;5045414;28;20256;-70
2022/06/17 04:49:18;;;;;;;4.77;3.87;;;;;14.90;101913.00;;;;5042217;28;20236;-70
2022/06/17 04:52:08;;;;;;;6.00;4.00;;;;;14.90;101905.00;;;;5039820;28;20222;-70
2022/06/17 04:54:56;;;;;;;6.07;4.53;;;;;15.00;101906.00;;;;5051249;28;20228;-71
2022/06/17 04:57:43;;;;;;;5.47;4.27;;;;;15.00;101894.00;;;;5043294;28;20213;-70
2022/06/17 05:00:30;;;;;;;5.70;4.73;;;;;15.10;101882.00;;;;5045423;28;20220;-70
2022/06/17 05:03:17;;;;;;;5.37;4.50;;;;;15.20;101875.00;;;;5044138;28;20232;-70
2022/06/17 05:06:05;;;;;;;6.60;5.10;;;;;15.30;101875.00;;;;5045825;28;20680;-70
2022/06/17 05:09:01;;;;;;;11.97;5.03;;;;;15.40;101874.00;;;;5040406;28;20329;-70
2022/06/17 05:11:51;;;;;;;7.17;4.87;;;;;15.50;101871.00;;;;5040829;28;20212;-70
2022/06/17 05:14:43;;;;;;;5.50;4.50;;;;;15.70;101880.00;;;;5044837;28;20339;-70
2022/06/17 05:17:29;;;;;;;6.73;5.67;;;;;15.80;101885.00;;;;5043338;28;20214;-71
2022/06/17 05:20:18;;;;;;;7.43;5.63;;;;;16.00;101888.00;;;;5045308;28;20269;-70
2022/06/17 05:23:08;;;;;;;7.30;5.60;;;;;16.20;101892.00;;;;5038133;28;20244;-70
2022/06/17 05:25:59;;;;;;;7.97;5.90;;;;;16.30;101888.00;;;;5048638;28;20225;-70
2022/06/17 05:28:46;;;;;;;7.93;5.87;;;;;16.50;101891.00;;;;5046594;28;20575;-70
2022/06/17 05:31:33;;;;;;;7.20;6.03;;;;;16.70;101892.00;;;;5040854;28;20316;-70
2022/06/17 05:34:20;;;;;;;9.83;6.20;;;;;17.00;101892.00;;;;5043251;28;20807;-70
2022/06/17 05:37:06;;;;;;;6.47;5.47;;;;;17.30;101888.00;;;;5044798;28;20234;-71
2022/06/17 05:39:54;;;;;;;8.70;5.23;;;;;17.50;101889.00;;;;5039160;28;20215;-70
2022/06/17 05:42:43;;;;;;;8.93;6.37;;;;;17.70;101886.00;;;;5044848;28;20288;-70
2022/06/17 05:45:30;;;;;;;7.73;5.00;;;;;17.80;101881.00;;;;5044862;28;20263;-70
2022/06/17 05:48:16;;;;;;;6.80;4.87;;;;;17.90;101883.00;;;;5044204;28;20212;-70
2022/06/17 05:51:03;;;;;;;5.77;4.80;;;;;17.90;101883.00;;;;5040594;28;20208;-70
2022/06/17 05:53:50;;;;;;;6.20;5.00;;;;;17.90;101878.00;;;;5041762;28;20315;-70
2022/06/17 05:56:37;;;;;;;9.10;4.40;;;;;18.00;101881.00;;;;5044926;28;20209;-70
2022/06/17 05:59:23;;;;;;;6.80;4.10;;;;;18.00;101881.00;;;;5042826;28;20228;-70
2022/06/17 06:02:11;;;;;;;6.47;4.00;;;;;18.10;101878.00;;;;5043724;28;20738;-69
2022/06/17 06:04:58;;;;;;;5.93;4.37;;;;;18.30;101871.00;;;;5034686;28;20212;-71
2022/06/17 06:07:44;;;;;;;7.50;4.77;;;;;18.60;101876.00;;;;5044235;28;20228;-71
2022/06/17 06:10:31;;;;;;;9.57;4.60;;;;;18.70;101872.00;;;;5040523;28;20209;-71
2022/06/17 06:13:23;;;;;;;10.20;5.17;;;;;19.00;101885.00;;;;5040317;28;20228;-71
2022/06/17 06:16:10;;;;;;;7.17;4.47;;;;;19.10;101878.00;;;;5041546;28;20224;-71
2022/06/17 06:18:56;;;;;;;10.30;4.40;;;;;19.30;101883.00;;;;5034299;28;20671;-71
2022/06/17 06:21:43;;;;;;;5.37;4.10;;;;;19.40;101883.00;;;;5044562;28;20236;-71
2022/06/17 06:24:29;;;;;;;4.93;3.77;;;;;19.60;101883.00;;;;5042465;28;20255;-71
2022/06/17 06:27:15;;;;;;;5.53;3.53;;;;;19.70;101881.00;;;;5035393;28;20264;-71
2022/06/17 06:30:04;;;;;;;4.07;3.13;;;;;19.90;101883.00;;;;5039725;28;20224;-71
2022/06/17 06:32:53;;;;;;;4.13;3.13;;;;;19.90;101885.00;;;;5045854;28;20232;-71
2022/06/17 06:35:39;;;;;;;3.90;3.27;;;;;19.90;101883.00;;;;5047907;28;20294;-71
2022/06/17 06:38:26;;;;;;;6.10;3.10;;;;;19.90;101892.00;;;;5045308;28;20213;-72
2022/06/17 06:41:12;;;;;;;4.07;3.27;;;;;19.90;101885.00;;;;5048847;28;20267;-71
2022/06/17 06:43:59;;;;;;;4.63;2.97;;;;;20.00;101902.00;;;;5045656;28;20344;-72
2022/06/17 06:46:47;;;;;;;4.97;3.27;;;;;20.00;101897.00;;;;5046773;28;20228;-69
2022/06/17 06:49:33;;;;;;;13.03;5.90;;;;;20.00;101893.00;;;;5039245;28;20877;-71
2022/06/17 06:52:19;;;;;;;6.87;4.70;;;;;20.10;101891.00;;;;5050557;28;20815;-70
2022/06/17 06:55:06;;;;;;;3.67;2.40;;;;;20.20;101880.00;;;;5049025;28;20261;-70
2022/06/17 06:57:55;;;;;;;2.90;2.60;;;;;20.50;101887.00;;;;5050118;28;20221;-70
2022/06/17 07:00:44;;;;;;;3.83;2.70;;;;;20.60;101881.00;;;;5038510;28;20356;-70
2022/06/17 07:03:32;;;;;;;3.63;2.70;;;;;20.70;101884.00;;;;5042175;28;20232;-70
2022/06/17 07:06:18;;;;;;;4.10;2.50;;;;;20.80;101882.00;;;;5043665;28;20212;-70
2022/06/17 07:09:05;;;;;;;2.37;2.17;;;;;20.80;101882.00;;;;5049039;28;20213;-70
2022/06/17 07:11:51;;;;;;;4.73;2.20;;;;;20.90;101877.00;;;;5045067;28;20287;-70
2022/06/17 07:14:37;;;;;;;5.23;2.60;;;;;20.90;101874.00;;;;5041119;28;20237;-70
2022/06/17 07:17:23;;;;;;;2.60;2.13;;;;;21.10;101880.00;;;;5046475;28;20208;-70
2022/06/17 07:20:12;;;;;;;4.13;2.23;;;;;20.90;101869.00;;;;5045052;28;20230;-70
2022/06/17 07:22:58;;;;;;;4.37;2.17;;;;;20.90;101874.00;;;;5044019;28;20255;-70
2022/06/17 07:25:46;;;;;;;3.43;2.30;;;;;21.00;101858.00;;;;5041579;28;20320;-70
2022/06/17 07:28:32;;;;;;;4.43;2.40;;;;;21.20;101862.00;;;;5045727;28;21017;-71
2022/06/17 07:31:19;;;;;;;2.63;2.03;;;;;21.40;101863.00;;;;5044073;28;20205;-70
2022/06/17 07:34:05;;;;;;;3.40;2.03;;;;;21.30;101857.00;;;;5046152;28;20240;-70
2022/06/17 07:39:57;;;;;;;3.67;2.10;;;;;21.50;101873.00;;;;5040425;28;20760;-70
2022/06/17 07:42:44;;;;;;;3.07;1.90;;;;;21.60;101863.00;;;;5047458;28;20236;-70
2022/06/17 07:45:32;;;;;;;3.27;2.20;;;;;21.60;101859.00;;;;5046051;28;20257;-71
2022/06/17 07:48:19;;;;;;;5.87;2.70;;;;;21.80;101852.00;;;;5044317;28;20218;-70
2022/06/17 07:51:06;;;;;;;4.23;2.40;;;;;22.00;101853.00;;;;5045912;28;20209;-70
2022/06/17 07:53:54;;;;;;;2.30;2.00;;;;;22.00;101851.00;;;;5039699;28;20275;-70
2022/06/17 07:56:40;;;;;;;3.20;2.30;;;;;22.10;101845.00;;;;5044858;28;20256;-70
2022/06/17 07:59:26;;;;;;;8.00;2.20;;;;;22.20;101847.00;;;;5050692;28;20329;-70
2022/06/17 08:02:13;;;;;;;2.53;2.27;;;;;22.40;101842.00;;;;5039173;28;20286;-70
2022/06/17 08:04:59;;;;;;;3.40;2.27;;;;;22.60;101843.00;;;;5042074;28;20290;-69
2022/06/17 08:07:45;;;;;;;2.50;2.27;;;;;22.60;101843.00;;;;5032598;28;20342;-69
2022/06/17 08:10:35;;;;;;;2.57;2.10;;;;;22.60;101847.00;;;;5036950;28;20336;-70
2022/06/17 08:13:22;;;;;;;2.40;2.20;;;;;22.90;101845.00;;;;5040423;28;20233;-70
2022/06/17 08:16:11;;;;;;;3.23;2.50;;;;;23.00;101843.00;;;;5038423;28;20806;-69
2022/06/17 08:18:58;;;;;;;2.83;2.10;;;;;23.10;101838.00;;;;5038866;28;20216;-69
2022/06/17 08:21:44;;;;;;;6.00;2.70;;;;;23.30;101843.00;;;;5042847;28;20223;-71
2022/06/17 08:24:46;;;;;;;2.63;2.30;;;;;23.50;101843.00;;;;5039687;28;20254;-69
2022/06/17 08:27:41;;;;;;;4.13;2.30;;;;;23.40;101859.00;;;;5041474;28;20208;-70
2022/06/17 08:30:31;;;;;;;5.07;2.90;;;;;23.40;101856.00;;;;5047492;28;20970;-70
2022/06/17 08:33:24;;;;;;;3.70;2.27;;;;;23.50;101859.00;;;;5041706;28;20235;-68
2022/06/17 08:36:29;;;;;;;3.47;1.90;;;;;23.60;101851.00;;;;5037408;28;20281;-69
2022/06/17 08:39:15;;;;;;;6.77;4.10;;;;;23.70;101854.00;;;;5032468;28;20288;-70
2022/06/17 08:42:09;;;;;;;5.83;3.50;;;;;23.90;101858.00;;;;5036560;28;20209;-71
2022/06/17 08:45:03;;;;;;;4.10;2.30;;;;;24.10;101853.00;;;;5035634;28;20221;-68
2022/06/17 08:48:07;;;;;;;2.50;2.10;;;;;24.40;101850.00;;;;5036275;28;20225;-70
2022/06/17 08:51:08;;;;;;;3.20;2.13;;;;;24.40;101853.00;;;;5030938;28;20571;-70
2022/06/17 08:54:14;;;;;;;3.30;2.00;;;;;24.60;101850.00;;;;5034098;28;21081;-72
2022/06/17 08:57:10;;;;;;;2.13;1.90;;;;;24.70;101832.00;;;;5045385;28;20660;-71
2022/06/17 09:00:11;;;;;;;2.33;2.13;;;;;24.70;101838.00;;;;5046821;28;20571;-67
2022/06/17 09:03:10;;;;;;;3.70;2.10;;;;;24.60;101847.00;;;;5039069;28;20229;-69
2022/06/17 09:06:13;;;;;;;6.73;2.30;;;;;24.60;101847.00;;;;5040260;28;20296;-70
2022/06/17 09:09:11;;;;;;;2.93;2.07;;;;;24.30;101839.00;;;;5041579;28;20242;-70
2022/06/17 09:12:07;;;;;;;3.90;2.43;;;;;24.30;101834.00;;;;5042924;28;20296;-70
2022/06/17 09:15:03;;;;;;;2.80;2.20;;;;;24.40;101845.00;;;;5046765;28;20275;-70
2022/06/17 09:17:58;;;;;;;4.73;2.20;;;;;24.30;101840.00;;;;5039941;28;20222;-69
2022/06/17 09:20:49;;;;;;;4.90;2.13;;;;;24.40;101838.00;;;;5040245;28;20303;-72
2022/06/17 09:23:39;;;;;;;2.90;2.00;;;;;24.80;101839.00;;;;5039873;28;20244;-71
2022/06/17 09:26:29;;;;;;;2.20;2.00;;;;;24.80;101837.00;;;;5038981;28;20692;-70
2022/06/17 09:29:21;;;;;;;2.30;2.10;;;;;25.10;101829.00;;;;5037443;28;20198;-70
2022/06/17 09:32:15;;;;;;;2.77;2.20;;;;;25.30;101830.00;;;;5041575;28;20247;-70
2022/06/17 09:35:08;;;;;;;4.17;2.20;;;;;25.30;101825.00;;;;5039369;28;20697;-70
2022/06/17 09:37:58;;;;;;;4.27;2.30;;;;;25.50;101823.00;;;;5042159;28;20221;-70
2022/06/17 09:40:51;;;;;;;3.60;2.03;;;;;25.60;101822.00;;;;5036967;28;20212;-71
2022/06/17 09:43:43;;;;;;;2.80;2.20;;;;;25.60;101823.00;;;;5037702;28;20284;-70
2022/06/17 09:46:35;;;;;;;2.33;2.07;;;;;25.70;101821.00;;;;5045067;28;20208;-70
2022/06/17 09:49:26;;;;;;;7.53;2.70;;;;;25.80;101820.00;;;;5040455;28;20204;-71
2022/06/17 09:52:16;;;;;;;2.50;2.00;;;;;25.90;101819.00;;;;5039303;28;20208;-70
2022/06/17 09:55:08;;;;;;;5.10;2.00;;;;;26.10;101821.00;;;;5045439;28;20581;-70
2022/06/17 09:58:01;;;;;;;2.30;2.10;;;;;26.20;101810.00;;;;5050737;28;20275;-70
2022/06/17 10:00:50;;;;;;;5.43;2.33;;;;;26.00;101817.00;;;;5044262;28;20358;-70
2022/06/17 10:03:39;;;;;;;6.00;2.23;;;;;26.20;101819.00;;;;5045253;28;20301;-71
2022/06/17 10:06:36;;;;;;;3.07;2.40;;;;;26.30;101820.00;;;;5042593;28;20578;-69
2022/06/17 10:09:36;;;;;;;9.07;1.90;;;;;26.60;101817.00;;;;5041851;28;20738;-69
2022/06/17 10:12:34;;;;;;;2.90;1.73;;;;;26.70;101809.00;;;;5042705;28;20296;-69
2022/06/17 10:15:30;;;;;;;2.67;1.93;;;;;26.60;101806.00;;;;5049286;28;20571;-69
2022/06/17 10:18:34;;;;;;;4.03;2.17;;;;;26.70;101800.00;;;;5055859;28;20205;-69
2022/06/17 10:21:34;;;;;;;2.30;2.07;;;;;26.70;101798.00;;;;5049675;28;20217;-69
2022/06/17 10:24:32;;;;;;;3.57;2.10;;;;;27.00;101807.00;;;;5049107;28;20721;-68
2022/06/17 10:27:33;;;;;;;3.13;2.30;;;;;27.10;101809.00;;;;5048335;28;20336;-70
2022/06/17 10:30:42;;;;;;;4.85;3.08;;;;;27.20;101805.00;;;;5047677;28;20340;-69
2022/06/17 10:33:32;;;;;;;3.73;2.27;;;;;27.30;101816.00;;;;5053229;28;20237;-70
2022/06/17 10:36:19;;;;;;;2.33;2.00;;;;;27.60;101802.00;;;;5045372;28;20221;-70
2022/06/17 10:39:10;;;;;;;1.90;1.80;;;;;27.60;101800.00;;;;5044384;28;20209;-70
2022/06/17 10:41:59;;;;;;;3.07;1.63;;;;;27.70;101808.00;;;;5041233;28;20209;-70
2022/06/17 10:44:48;;;;;;;2.20;1.80;;;;;27.90;101803.00;;;;5046659;28;20315;-70
2022/06/17 10:47:41;;;;;;;3.20;2.15;;;;;28.00;101808.00;;;;5046588;28;20224;-69
2022/06/17 10:50:29;;;;;;;2.22;1.90;;;;;27.90;101814.00;;;;5045911;28;20701;-70
2022/06/17 10:53:28;;;;;;;2.72;2.30;;;;;28.30;101807.00;;;;5043863;28;20318;-70
2022/06/17 10:56:20;;;;;;;3.78;1.90;;;;;28.40;101809.00;;;;5043082;28;20662;-70
2022/06/17 10:59:10;;;;;;;2.85;2.20;;;;;28.40;101811.00;;;;5046572;28;20240;-72
2022/06/17 11:01:58;;;;;;;2.72;2.22;;;;;28.50;101810.00;;;;5039998;28;20216;-70
2022/06/17 11:04:51;;;;;;;7.13;2.22;;;;;28.50;101817.00;;;;5040328;28;20212;-71
2022/06/17 11:07:48;;;;;;;2.20;1.90;;;;;28.60;101823.00;;;;5042123;28;20724;-69
2022/06/17 11:10:38;;;;;;;5.22;2.00;;;;;28.70;101814.00;;;;5044042;28;20254;-71
2022/06/17 11:13:26;;;;;;;6.78;2.10;;;;;28.70;101816.00;;;;5047760;28;20307;-69
2022/06/17 11:16:17;;;;;;;4.88;2.10;;;;;28.70;101807.00;;;;5041179;28;20208;-70
2022/06/17 11:19:07;;;;;;;2.20;2.00;;;;;28.40;101802.00;;;;5046152;28;20220;-70
2022/06/17 11:21:58;;;;;;;1.75;1.50;;;;;28.30;101798.00;;;;5048079;28;20225;-69
2022/06/17 11:24:52;;;;;;;3.50;1.77;;;;;28.40;101800.00;;;;5043829;28;20260;-70
2022/06/17 11:27:42;;;;;;;1.80;1.70;;;;;28.60;101797.00;;;;5047107;28;20216;-70
2022/06/17 11:30:34;;;;;;;2.70;1.80;;;;;28.60;101794.00;;;;5047751;28;20252;-69
2022/06/17 11:33:26;;;;;;;2.80;1.90;;;;;28.80;101791.00;;;;5043492;28;20248;-70
2022/06/17 11:36:18;;;;;;;3.42;1.80;;;;;28.70;101776.00;;;;5046289;28;20209;-70
2022/06/17 11:39:27;;;;;;;3.60;1.63;;;;;28.80;101787.00;;;;5048281;28;20212;-70
2022/06/17 11:42:16;;;;;;;2.05;1.92;;;;;28.80;101787.00;;;;5050814;28;20208;-69
2022/06/17 11:45:06;;;;;;;1.70;1.60;;;;;28.80;101784.00;;;;5049267;28;20220;-69
2022/06/17 11:47:59;;;;;;;2.80;1.88;;;;;28.70;101783.00;;;;5046238;28;20303;-70
2022/06/17 11:51:03;;;;;;;2.30;1.88;;;;;28.60;101780.00;;;;5045489;28;20240;-75
2022/06/17 11:53:53;;;;;;;2.25;1.70;;;;;28.90;101783.00;;;;5050336;28;20235;-71
2022/06/17 11:56:43;;;;;;;1.88;1.70;;;;;28.90;101771.00;;;;5048080;28;20209;-69
2022/06/17 11:59:40;;;;;;;2.50;1.83;;;;;28.80;101758.00;;;;5031733;28;20217;-70
2022/06/17 12:02:27;;;;;;;2.10;1.90;;;;;28.70;101750.00;;;;5040752;28;20201;-71
2022/06/17 12:05:22;;;;;;;4.47;2.05;;;;;28.70;101742.00;;;;5037192;28;20640;-71
2022/06/17 12:08:16;;;;;;;5.13;1.98;;;;;28.70;101744.00;;;;5038256;28;20224;-70
2022/06/17 12:11:07;;;;;;;2.63;1.90;;;;;28.80;101745.00;;;;5039639;28;20221;-71
2022/06/17 12:14:00;;;;;;;3.63;1.80;;;;;29.00;101744.00;;;;5045783;28;20717;-71
2022/06/17 12:16:48;;;;;;;3.88;2.10;;;;;29.10;101740.00;;;;5046156;28;20205;-71
2022/06/17 12:19:54;;;;;;;2.45;2.10;;;;;29.20;101746.00;;;;5045598;28;20213;-71
2022/06/17 12:22:46;;;;;;;3.17;1.92;;;;;29.40;101737.00;;;;5042676;28;20228;-70
2022/06/17 12:25:43;;;;;;;2.33;2.10;;;;;29.50;101733.00;;;;5046532;28;20688;-70
2022/06/17 12:28:36;;;;;;;2.00;1.70;;;;;29.90;101721.00;;;;5047699;28;20784;-71
2022/06/17 12:31:32;;;;;;;2.67;2.08;;;;;30.20;101717.00;;;;5038657;28;20205;-69
2022/06/17 12:34:29;;;;;;;2.33;2.10;;;;;30.20;101712.00;;;;5040617;28;20598;-71
2022/06/17 12:37:30;;;;;;;2.78;1.88;;;;;30.50;101714.00;;;;5042089;28;20225;-70
2022/06/17 12:40:21;;;;;;;2.28;1.90;;;;;30.30;101712.00;;;;5032777;28;20287;-71
2022/06/17 12:43:16;;;;;;;3.72;1.80;;;;;30.50;101713.00;;;;5028107;28;20225;-71
2022/06/17 12:46:04;;;;;;;1.85;1.50;;;;;30.50;101707.00;;;;5042202;28;20311;-72
2022/06/17 12:48:58;;;;;;;2.45;1.80;;;;;30.30;101702.00;;;;5033788;28;20221;-70
2022/06/17 12:55:12;;;;;;;2.28;1.52;;;;;31.00;101692.00;;;;5045085;28;20371;-71
2022/06/17 12:58:06;;;;;;;3.95;1.60;;;;;31.40;101692.00;;;;5037674;28;20249;-72
2022/06/17 13:00:59;;;;;;;1.50;1.40;;;;;31.50;101696.00;;;;5041844;28;20216;-70
2022/06/17 13:04:13;;;;;;;1.52;1.42;;;;;31.70;101693.00;;;;5042992;28;20724;-71
2022/06/17 13:07:11;;;;;;;2.28;1.50;;;;;31.80;101696.00;;;;5038186;28;21039;-71
2022/06/17 13:13:28;;;;;;;2.85;1.73;;;;;32.20;101679.00;;;;5046337;28;20249;-71
2022/06/17 13:16:20;;;;;;;1.52;1.35;;;;;32.30;101678.00;;;;5038774;28;20221;-73
2022/06/17 13:19:16;;;;;;;3.58;1.63;;;;;32.00;101665.00;;;;5045392;28;20232;-73
2022/06/17 13:22:07;;;;;;;2.35;1.70;;;;;32.10;101657.00;;;;5048277;28;20220;-73
2022/06/17 13:25:02;;;;;;;3.00;1.73;;;;;32.00;101660.00;;;;5045538;28;20217;-73
2022/06/17 13:27:56;;;;;;;3.45;2.22;;;;;32.20;101675.00;;;;5048665;28;20886;-71
2022/06/17 13:30:46;;;;;;;1.92;1.73;;;;;32.30;101663.00;;;;5043397;28;20619;-70
2022/06/17 13:33:40;;;;;;;4.18;1.70;;;;;32.70;101657.00;;;;5043506;28;20257;-72
2022/06/17 13:36:34;;;;;;;3.70;1.65;;;;;32.70;101650.00;;;;5037610;28;20248;-68
2022/06/17 13:39:24;;;;;;;2.20;1.55;;;;;32.90;101647.00;;;;5029022;28;20225;-70
2022/06/17 13:42:13;;;;;;;1.73;1.63;;;;;33.30;101647.00;;;;5035846;28;20216;-70
2022/06/17 13:45:11;;;;;;;3.08;1.65;;;;;33.40;101654.00;;;;5030947;28;20218;-71
2022/06/17 13:48:04;;;;;;;2.45;1.67;;;;;33.70;101650.00;;;;5035165;28;20781;-71
2022/06/17 13:51:07;;;;;;;2.97;1.55;;;;;33.80;101646.00;;;;5035805;28;20205;-69
2022/06/17 13:54:07;;;;;;;2.58;1.60;;;;;33.90;101638.00;;;;5035533;28;20225;-70
2022/06/17 13:57:01;;;;;;;1.77;1.67;;;;;34.20;101641.00;;;;5029418;28;20205;-68
2022/06/17 13:59:51;;;;;;;1.75;1.38;;;;;34.50;101643.00;;;;5036967;28;20236;-71
2022/06/17 14:02:52;;;;;;;4.57;1.88;;;;;34.60;101632.00;;;;5035504;28;20208;-71
2022/06/17 14:05:40;;;;;;;1.98;1.70;;;;;34.80;101633.00;;;;5045001;28;20208;-69
2022/06/17 14:08:50;;;;;;;1.70;1.60;;;;;34.80;101635.00;;;;5038319;28;20279;-70
2022/06/17 14:11:57;;;;;;;1.98;1.50;;;;;35.00;101632.00;;;;5043022;28;20216;-69
2022/06/17 14:14:46;;;;;;;4.80;1.73;;;;;35.20;101638.00;;;;5037641;28;20253;-70
2022/06/17 14:17:33;;;;;;;2.22;2.03;;;;;35.70;101632.00;;;;5048311;28;20809;-70